EST,Max TemperatureF,Mean TemperatureF,Min TemperatureF,Max Dew PointF,MeanDew PointF,Min DewpointF,Max Humidity, Mean Humidity, Min Humidity, Max Sea Level PressureIn, Mean Sea Level PressureIn, Min Sea Level PressureIn, Max VisibilityMiles, Mean VisibilityMiles, Min VisibilityMiles, Max Wind SpeedMPH, Mean Wind SpeedMPH, Max Gust SpeedMPH,PrecipitationIn, CloudCover, Events, WindDirDegrees
2013-2-1,31,26,21,25,15,4,92,65,37,30.31,29.98,29.86,10,6,0,28,12,36,0.11,5,Fog-Snow,298
2013-2-2,29,22,14,23,9,3,88,62,35,30.36,30.23,30.06,10,8,1,17,7,23,0.04,3,Snow,239
2013-2-3,36,29,22,24,21,16,96,72,47,30.05,29.90,29.82,10,9,1,14,5,18,0.02,4,Snow,295
2013-2-4,30,26,21,25,14,7,78,59,39,30.08,29.98,29.87,10,9,2,24,11,34,T,3,Snow,277
2013-2-5,42,35,27,31,27,20,89,72,54,29.95,29.92,29.88,10,10,8,12,3,15,0.00,7,,48
2013-2-6,43,31,19,30,23,13,92,67,41,30.37,30.11,29.94,10,6,0,26,9,35,0.00,3,Fog,309
2013-2-7,40,29,18,31,19,14,77,59,40,30.50,30.41,30.25,10,10,10,17,7,20,0.00,3,,46
2013-2-8,44,38,32,42,36,30,96,83,70,30.23,29.79,29.58,10,6,1,28,16,36,2.07,8,Rain-Snow,19
2013-2-9,34,29,24,29,22,8,92,71,50,30.36,29.99,29.76,10,7,1,32,20,41,0.09,5,Snow,312
2013-2-10,38,28,17,30,13,0,70,47,24,30.51,30.42,30.34,10,10,10,16,6,20,0.00,0,,226
2013-2-11,54,45,36,51,45,32,100,88,76,30.31,29.95,29.69,10,5,0,25,12,35,0.56,7,Fog-Rain,190
2013-2-12,50,40,29,44,28,23,80,60,39,30.00,29.91,29.77,10,10,10,25,10,35,0.00,1,,296
2013-2-13,45,34,23,33,28,20,92,73,53,29.99,29.79,29.65,10,7,1,17,7,24,0.37,5,Rain-Snow,40
2013-2-14,48,40,32,34,32,30,96,81,65,30.05,29.93,29.71,10,5,0,13,7,16,0.04,5,Snow,269
2013-2-15,55,41,27,37,33,26,100,73,46,30.07,30.01,29.94,10,6,1,14,6,18,0.00,1,,196
2013-2-16,41,35,29,33,30,18,92,76,59,29.97,29.88,29.73,10,8,2,21,11,27,0.05,8,Rain-Snow,348
2013-2-17,33,28,23,16,8,0,58,45,31,30.07,29.83,29.70,10,10,10,35,21,43,0.00,4,,309
2013-2-18,38,29,19,15,6,0,53,40,27,30.32,30.24,30.10,10,10,10,28,12,35,0.00,0,,271
2013-2-19,48,40,31,44,34,19,89,68,47,30.23,29.94,29.73,10,10,7,23,11,32,0.20,5,Rain,210
2013-2-20,38,32,25,26,15,8,75,57,38,30.08,29.94,29.81,10,10,10,30,17,37,0.00,3,,286
2013-2-21,37,30,22,14,11,8,62,50,38,30.30,30.12,30.06,10,10,10,31,17,38,0.00,1,,305
2013-2-22,37,30,22,33,23,13,89,72,55,30.40,30.33,30.25,10,10,10,15,5,17,0.02,4,Rain,31
2013-2-23,47,41,34,45,41,33,100,95,89,30.25,29.97,29.77,10,4,0,16,8,21,0.42,8,Rain,56
2013-2-24,52,42,31,39,32,19,92,68,44,30.03,29.83,29.76,10,7,2,31,14,37,0.00,6,,322
2013-2-25,48,36,24,28,22,18,85,61,37,30.25,30.16,30.05,10,10,10,16,6,22,0.00,2,,295
2013-2-26,47,35,23,45,33,21,96,79,62,30.26,30.08,29.74,10,7,2,28,12,35,0.99,6,Rain,69
2013-2-27,56,50,44,49,44,36,100,76,51,29.69,29.58,29.49,10,7,0,23,9,30,0.14,7,Fog-Rain,238
2013-2-28,46,41,36,38,34,25,82,66,49,29.68,29.64,29.59,10,9,6,16,7,21,0.04,7,Rain,286